Time;durP1;ratioP1;P1;durP2;ratioP2;P2;SDS_P1;SDS_P2;PMS_P1;PMS_P2;Temp;Humidity;BMP_temperature;BMP_pressure;BME280_temperature;BME280_humidity;BME280_pressure;Samples;Min_cycle;Max_cycle;Signal;HPM_P1;HPM_P2
2023/01/12 00:02:12;;;;;;;10.05;3.70;;;8.50;99.90;;;;;;4983285;28;20550;-66
2023/01/12 00:04:38;;;;;;;13.80;4.82;;;8.50;99.90;;;;;;4994867;28;20038;-65
2023/01/12 00:07:09;;;;;;;12.50;4.47;;;8.60;99.90;;;;;;4989187;28;20057;-66
2023/01/12 00:09:35;;;;;;;11.88;4.53;;;8.60;99.90;;;;;;4992369;28;20121;-66
2023/01/12 00:12:06;;;;;;;14.73;5.35;;;8.60;99.90;;;;;;4989713;28;20050;-64
2023/01/12 00:14:37;;;;;;;14.65;4.50;;;8.50;99.90;;;;;;4990777;28;20058;-66
2023/01/12 00:17:05;;;;;;;13.30;4.90;;;8.50;99.90;;;;;;4988082;28;20034;-66
2023/01/12 00:19:31;;;;;;;16.70;4.75;;;8.50;99.90;;;;;;4986412;28;20297;-65
2023/01/12 00:22:05;;;;;;;12.75;4.18;;;8.50;99.90;;;;;;4995109;28;20105;-65
2023/01/12 00:24:35;;;;;;;15.90;4.25;;;8.60;99.90;;;;;;4982816;28;20077;-66
2023/01/12 00:27:04;;;;;;;16.25;4.30;;;8.60;99.90;;;;;;4983109;28;20050;-66
2023/01/12 00:29:30;;;;;;;15.57;4.65;;;8.60;99.90;;;;;;4993459;28;20057;-66
2023/01/12 00:31:57;;;;;;;18.50;4.10;;;8.60;99.90;;;;;;4991331;28;20047;-66
2023/01/12 00:34:23;;;;;;;10.77;4.13;;;8.70;99.90;;;;;;4988778;28;20038;-66
2023/01/12 00:36:49;;;;;;;18.40;4.00;;;8.70;99.90;;;;;;4986468;28;20073;-66
2023/01/12 00:39:15;;;;;;;16.95;4.25;;;8.70;99.90;;;;;;4974104;28;20078;-66
2023/01/12 00:47:12;;;;;;;12.57;3.53;;;8.70;99.90;;;;;;4977310;28;20054;-66
2023/01/12 00:49:40;;;;;;;13.15;3.63;;;8.70;99.90;;;;;;4986613;28;20073;-66
2023/01/12 00:52:06;;;;;;;13.75;3.38;;;8.70;99.90;;;;;;4981706;28;20041;-66
2023/01/12 00:54:33;;;;;;;17.67;4.00;;;8.70;99.90;;;;;;4986210;28;20105;-66
2023/01/12 00:56:59;;;;;;;11.98;3.28;;;8.70;99.90;;;;;;4990285;28;20053;-66
2023/01/12 00:59:25;;;;;;;13.95;3.85;;;8.70;99.90;;;;;;4989152;28;20090;-66
2023/01/12 01:01:50;;;;;;;15.68;4.55;;;8.70;99.90;;;;;;4987299;28;20074;-66
2023/01/12 01:04:16;;;;;;;16.02;4.65;;;8.70;99.90;;;;;;4977051;28;20515;-66
2023/01/12 01:06:42;;;;;;;15.27;4.13;;;8.80;99.90;;;;;;4982416;28;20041;-66
2023/01/12 01:09:07;;;;;;;16.58;4.07;;;8.70;99.90;;;;;;4986248;28;20512;-66
2023/01/12 01:11:34;;;;;;;20.45;4.90;;;8.70;99.90;;;;;;4992607;28;20422;-66
2023/01/12 01:14:00;;;;;;;13.10;4.20;;;8.70;99.90;;;;;;4990583;28;20041;-65
2023/01/12 01:16:26;;;;;;;18.45;5.35;;;8.70;99.90;;;;;;4992026;28;20038;-66
2023/01/12 01:18:52;;;;;;;14.63;4.35;;;8.70;99.90;;;;;;4983197;28;20034;-66
2023/01/12 01:21:17;;;;;;;22.02;4.93;;;8.80;99.90;;;;;;4979508;28;20485;-65
2023/01/12 01:23:44;;;;;;;15.50;4.78;;;8.80;99.90;;;;;;4985419;28;20034;-65
2023/01/12 01:26:17;;;;;;;15.73;4.40;;;8.70;99.90;;;;;;4993611;28;20081;-66
2023/01/12 01:28:43;;;;;;;16.50;4.72;;;8.80;99.90;;;;;;4991012;28;20036;-66
2023/01/12 01:31:18;;;;;;;18.70;5.28;;;8.70;99.90;;;;;;4984501;28;20104;-65
2023/01/12 01:33:44;;;;;;;19.25;5.10;;;8.80;99.90;;;;;;4981731;28;20478;-65
2023/01/12 01:36:10;;;;;;;18.08;5.30;;;8.80;99.90;;;;;;4974390;28;20070;-66
2023/01/12 01:38:36;;;;;;;19.10;5.68;;;8.80;99.90;;;;;;4954663;28;20046;-65
2023/01/12 01:41:02;;;;;;;16.67;4.97;;;8.80;99.90;;;;;;4979405;28;20030;-65
2023/01/12 01:43:51;;;;;;;19.80;5.30;;;8.80;99.90;;;;;;4975739;28;20046;-65
2023/01/12 01:46:25;;;;;;;17.30;5.22;;;8.80;99.90;;;;;;4972474;28;20050;-66
2023/01/12 01:48:51;;;;;;;17.65;5.22;;;8.80;99.90;;;;;;4988938;28;20050;-65
2023/01/12 01:51:17;;;;;;;19.45;5.53;;;8.80;99.90;;;;;;4983917;28;20092;-66
2023/01/12 01:53:44;;;;;;;12.73;4.70;;;8.80;99.90;;;;;;4993711;28;20038;-66
2023/01/12 01:56:32;;;;;;;17.02;5.53;;;8.80;99.90;;;;;;4983271;28;20552;-66
2023/01/12 01:59:06;;;;;;;17.20;5.35;;;8.80;99.90;;;;;;4981677;28;20061;-65
2023/01/12 02:01:32;;;;;;;19.67;5.40;;;8.70;99.90;;;;;;4991543;28;20411;-66
2023/01/12 02:03:59;;;;;;;15.82;5.47;;;8.70;99.90;;;;;;4978881;28;20041;-66
2023/01/12 02:06:26;;;;;;;23.75;5.18;;;8.70;99.90;;;;;;4983150;28;20481;-66
2023/01/12 02:08:58;;;;;;;18.45;4.60;;;8.70;99.90;;;;;;4986688;28;20050;-65
2023/01/12 02:17:29;;;;;;;20.02;5.65;;;8.70;99.90;;;;;;4981564;28;20078;-65
2023/01/12 02:20:25;;;;;;;19.77;5.53;;;8.80;99.90;;;;;;4973912;28;20041;-65
2023/01/12 02:22:57;;;;;;;21.40;4.72;;;8.90;99.90;;;;;;4981709;28;20413;-65
2023/01/12 02:25:59;;;;;;;18.42;4.80;;;8.90;99.90;;;;;;4973516;28;20034;-66
2023/01/12 02:28:55;;;;;;;16.55;4.78;;;8.80;99.90;;;;;;4973449;28;20038;-65
2023/01/12 02:31:42;;;;;;;12.55;4.18;;;8.90;99.90;;;;;;4983567;28;20050;-65
2023/01/12 02:34:18;;;;;;;13.15;5.07;;;8.90;99.90;;;;;;4981081;28;20457;-67
2023/01/12 02:36:57;;;;;;;12.35;5.28;;;8.90;99.90;;;;;;4974556;28;20038;-66
2023/01/12 02:39:43;;;;;;;15.88;6.00;;;8.90;99.90;;;;;;4988333;28;20447;-66
2023/01/12 02:42:40;;;;;;;15.43;5.35;;;8.90;99.90;;;;;;4988212;28;20034;-66
2023/01/12 02:45:08;;;;;;;14.52;5.68;;;8.90;99.90;;;;;;4971178;28;20047;-66
2023/01/12 02:47:45;;;;;;;17.45;6.80;;;8.90;99.90;;;;;;4981830;28;20082;-66
2023/01/12 02:50:16;;;;;;;15.90;5.43;;;8.80;99.90;;;;;;4980836;28;20524;-66
2023/01/12 02:52:47;;;;;;;22.27;6.85;;;8.80;99.90;;;;;;4970528;28;20852;-65
2023/01/12 02:55:16;;;;;;;16.60;6.05;;;8.80;99.90;;;;;;4975553;28;20039;-66
2023/01/12 02:57:43;;;;;;;18.65;6.63;;;8.80;99.90;;;;;;4976079;28;20073;-65
2023/01/12 03:00:10;;;;;;;14.82;5.00;;;8.80;99.90;;;;;;4992344;28;20471;-65
2023/01/12 03:02:37;;;;;;;18.52;6.78;;;8.80;99.90;;;;;;4976388;28;20520;-65
2023/01/12 03:05:04;;;;;;;19.00;6.15;;;8.90;99.90;;;;;;4956077;28;20393;-65
2023/01/12 03:07:51;;;;;;;17.75;6.35;;;8.90;99.90;;;;;;4972894;28;20053;-66
2023/01/12 03:10:19;;;;;;;16.10;6.30;;;8.90;99.90;;;;;;4970497;28;20039;-66
2023/01/12 03:12:50;;;;;;;18.55;6.40;;;8.90;99.90;;;;;;4986866;28;20429;-66
2023/01/12 03:15:18;;;;;;;18.13;6.30;;;8.90;99.90;;;;;;4988412;28;20524;-65
2023/01/12 03:17:54;;;;;;;17.38;6.18;;;8.90;99.90;;;;;;4989050;28;20054;-65
2023/01/12 03:20:24;;;;;;;20.55;7.25;;;8.90;99.90;;;;;;4978343;28;20053;-66
2023/01/12 03:22:56;;;;;;;16.15;5.40;;;9.00;99.90;;;;;;4983547;28;20119;-67
2023/01/12 03:25:25;;;;;;;16.98;6.50;;;9.00;99.90;;;;;;4974954;28;20100;-66
2023/01/12 03:27:54;;;;;;;15.90;6.80;;;9.00;99.90;;;;;;4984488;28;20030;-64
2023/01/12 03:30:30;;;;;;;18.60;5.47;;;9.00;99.90;;;;;;4991174;28;20054;-65
2023/01/12 03:32:56;;;;;;;20.30;6.85;;;8.90;99.90;;;;;;4972449;28;20050;-66
2023/01/12 03:35:26;;;;;;;16.05;7.18;;;8.90;99.90;;;;;;4972470;28;20043;-65
2023/01/12 03:38:02;;;;;;;15.20;6.67;;;8.90;99.90;;;;;;4974302;28;20035;-66
2023/01/12 03:40:38;;;;;;;14.27;6.38;;;8.90;99.90;;;;;;4990073;28;20274;-65
2023/01/12 03:43:48;;;;;;;15.48;6.22;;;9.00;99.90;;;;;;4970065;28;20081;-66
2023/01/12 03:46:28;;;;;;;13.57;6.68;;;9.00;99.90;;;;;;4963181;28;20504;-66
2023/01/12 03:49:19;;;;;;;13.68;6.00;;;9.00;99.90;;;;;;4985540;28;20642;-67
2023/01/12 03:51:47;;;;;;;15.15;6.57;;;9.10;99.90;;;;;;4984764;28;20034;-66
2023/01/12 03:54:14;;;;;;;15.55;6.53;;;9.00;99.90;;;;;;4987179;28;20034;-66
2023/01/12 03:56:41;;;;;;;12.68;6.07;;;9.00;99.90;;;;;;4983528;28;20515;-66
2023/01/12 03:59:08;;;;;;;12.25;5.72;;;9.00;99.90;;;;;;4986233;28;20070;-63
2023/01/12 04:01:34;;;;;;;11.75;4.63;;;9.00;99.90;;;;;;4985968;28;21262;-66
2023/01/12 04:03:59;;;;;;;12.65;5.72;;;9.00;99.90;;;;;;4983500;28;20041;-66
2023/01/12 04:06:25;;;;;;;10.93;4.78;;;9.00;99.90;;;;;;4991739;28;20509;-65
2023/01/12 04:08:51;;;;;;;9.15;5.07;;;9.00;99.90;;;;;;4987756;28;20625;-65
2023/01/12 04:14:01;;;;;;;13.13;4.65;;;9.10;99.90;;;;;;4983538;28;20050;-66
2023/01/12 04:16:26;;;;;;;11.07;4.40;;;9.10;99.90;;;;;;4987967;28;20393;-67
2023/01/12 04:18:52;;;;;;;9.32;3.97;;;9.10;99.90;;;;;;4985045;28;20121;-66
2023/01/12 04:24:02;;;;;;;9.52;3.65;;;9.20;99.90;;;;;;4982009;28;20136;-66
2023/01/12 04:26:27;;;;;;;8.77;3.42;;;9.20;99.90;;;;;;4984698;28;20508;-66
2023/01/12 04:28:53;;;;;;;5.60;3.13;;;9.20;99.90;;;;;;4988769;28;20105;-67
2023/01/12 04:31:19;;;;;;;4.38;2.80;;;9.20;99.90;;;;;;4994656;28;20042;-66
2023/01/12 04:33:44;;;;;;;7.57;2.85;;;9.20;99.90;;;;;;4984954;28;20045;-65
2023/01/12 04:36:10;;;;;;;9.98;2.92;;;9.20;99.90;;;;;;4991985;28;20046;-66
2023/01/12 04:38:40;;;;;;;5.47;2.40;;;9.20;99.90;;;;;;4985977;28;20105;-66
2023/01/12 04:41:08;;;;;;;6.88;2.50;;;9.20;99.90;;;;;;4994764;28;20049;-66
2023/01/12 04:43:35;;;;;;;6.65;2.80;;;9.20;99.90;;;;;;4983551;28;20049;-66
2023/01/12 04:46:05;;;;;;;8.70;2.83;;;9.10;99.90;;;;;;4986464;28;20105;-66
2023/01/12 04:48:31;;;;;;;4.68;2.40;;;9.10;99.90;;;;;;4993199;28;20050;-65
2023/01/12 04:50:58;;;;;;;5.88;2.55;;;9.10;99.90;;;;;;4983746;28;20556;-66
2023/01/12 04:53:25;;;;;;;4.80;2.22;;;9.10;99.90;;;;;;4968718;28;20042;-66
2023/01/12 04:55:50;;;;;;;5.07;2.38;;;9.10;99.90;;;;;;4994380;28;20557;-65
2023/01/12 04:58:16;;;;;;;5.93;2.38;;;9.10;99.90;;;;;;4990177;28;20129;-66
2023/01/12 05:00:41;;;;;;;3.47;2.05;;;9.00;99.90;;;;;;4975834;28;20125;-66
2023/01/12 05:03:10;;;;;;;5.22;2.10;;;9.00;99.90;;;;;;4985906;28;20034;-67
2023/01/12 05:05:36;;;;;;;4.53;2.10;;;9.10;99.90;;;;;;4994567;28;20117;-66
2023/01/12 05:10:56;;;;;;;6.18;2.28;;;9.10;99.90;;;;;;4986768;28;20468;-65
2023/01/12 05:13:24;;;;;;;4.35;1.95;;;9.00;99.90;;;;;;4993905;28;20042;-66
2023/01/12 05:15:49;;;;;;;6.72;1.98;;;9.00;99.90;;;;;;4983410;28;20034;-65
2023/01/12 05:18:15;;;;;;;4.90;2.30;;;8.90;99.90;;;;;;4993780;28;20045;-65
2023/01/12 05:20:40;;;;;;;5.38;2.22;;;8.90;99.90;;;;;;4983394;28;20485;-65
2023/01/12 05:23:06;;;;;;;4.60;2.20;;;8.90;99.90;;;;;;4985232;28;20045;-65
2023/01/12 05:25:32;;;;;;;7.88;2.00;;;8.90;99.90;;;;;;4977324;28;20494;-65
2023/01/12 05:27:58;;;;;;;6.55;2.05;;;8.90;99.90;;;;;;4985051;28;20038;-65
2023/01/12 05:30:26;;;;;;;4.90;1.80;;;8.90;99.90;;;;;;4989740;28;20038;-66
2023/01/12 05:32:52;;;;;;;6.53;2.00;;;8.90;99.90;;;;;;4985546;28;20121;-66
2023/01/12 05:35:17;;;;;;;4.85;1.73;;;8.90;99.90;;;;;;4985608;28;20129;-66
2023/01/12 05:37:43;;;;;;;7.47;2.40;;;8.90;99.90;;;;;;4993933;28;20100;-66
2023/01/12 05:40:10;;;;;;;7.97;2.03;;;8.90;99.90;;;;;;4964091;28;20077;-66
2023/01/12 05:45:20;;;;;;;5.65;1.98;;;8.90;99.90;;;;;;4990643;28;20109;-66
2023/01/12 05:47:46;;;;;;;3.88;1.88;;;9.00;99.90;;;;;;4986809;28;20039;-66
2023/01/12 05:50:11;;;;;;;4.82;2.20;;;9.00;99.90;;;;;;4985232;28;20123;-65
2023/01/12 05:52:37;;;;;;;5.18;1.83;;;9.10;99.90;;;;;;4973981;28;20089;-65
2023/01/12 05:55:04;;;;;;;5.63;2.03;;;9.10;99.90;;;;;;4973073;28;20450;-66
2023/01/12 05:57:30;;;;;;;5.72;2.15;;;9.10;99.90;;;;;;4977718;28;20104;-66
2023/01/12 05:59:56;;;;;;;9.25;2.40;;;9.10;99.90;;;;;;4987326;28;20042;-66
2023/01/12 06:02:21;;;;;;;4.47;1.85;;;9.10;99.90;;;;;;4990476;28;20035;-66
2023/01/12 06:04:47;;;;;;;7.85;2.30;;;9.20;99.90;;;;;;4982688;28;20509;-65
2023/01/12 06:07:15;;;;;;;6.35;2.58;;;9.10;99.90;;;;;;4984071;28;20034;-66
2023/01/12 06:09:41;;;;;;;4.40;1.83;;;9.10;99.90;;;;;;4984251;28;20053;-66
2023/01/12 06:14:54;;;;;;;5.57;2.25;;;9.10;99.90;;;;;;4987257;28;20046;-66
2023/01/12 06:17:20;;;;;;;6.38;2.80;;;9.20;99.90;;;;;;4988810;28;20038;-66
2023/01/12 06:19:45;;;;;;;5.32;2.35;;;9.20;99.90;;;;;;4993044;28;20117;-65
2023/01/12 06:22:11;;;;;;;5.55;2.28;;;9.20;99.90;;;;;;4974130;28;20083;-67
2023/01/12 06:24:36;;;;;;;5.50;2.47;;;9.20;99.90;;;;;;4977392;28;20045;-67
2023/01/12 06:27:02;;;;;;;5.97;2.45;;;9.20;99.90;;;;;;4987898;28;20432;-65
2023/01/12 06:29:28;;;;;;;8.38;3.10;;;9.20;99.90;;;;;;4982114;28;20152;-67
2023/01/12 06:31:53;;;;;;;7.95;2.70;;;9.20;99.90;;;;;;4985235;28;20108;-66
2023/01/12 06:34:19;;;;;;;3.03;2.00;;;9.20;99.90;;;;;;4990941;28;20046;-65
2023/01/12 06:36:45;;;;;;;5.20;2.05;;;9.30;99.90;;;;;;4992104;28;20038;-65
2023/01/12 06:39:11;;;;;;;4.43;2.33;;;9.30;99.90;;;;;;4981252;28;20057;-66
2023/01/12 06:44:21;;;;;;;7.05;2.20;;;9.30;99.90;;;;;;4989925;28;20103;-66
2023/01/12 06:46:47;;;;;;;5.40;2.15;;;9.30;99.90;;;;;;4975153;28;20114;-65
2023/01/12 06:49:15;;;;;;;7.07;2.22;;;9.30;99.90;;;;;;4980840;28;20038;-65
2023/01/12 06:51:41;;;;;;;4.15;1.90;;;9.40;99.90;;;;;;4977622;28;20045;-65
2023/01/12 06:54:07;;;;;;;5.25;1.95;;;9.50;99.90;;;;;;4980183;28;20043;-66
2023/01/12 06:56:32;;;;;;;6.03;1.80;;;9.40;99.90;;;;;;4977456;28;20031;-65
2023/01/12 06:58:58;;;;;;;4.30;1.70;;;9.50;99.90;;;;;;4976114;28;20502;-66
2023/01/12 07:01:25;;;;;;;2.63;1.40;;;9.50;99.90;;;;;;4974370;28;20039;-66
2023/01/12 07:03:52;;;;;;;5.88;1.50;;;9.50;99.90;;;;;;4975545;28;20125;-66
2023/01/12 07:06:18;;;;;;;3.13;1.85;;;9.60;99.90;;;;;;4968743;28;20090;-66
2023/01/12 07:08:44;;;;;;;4.20;1.70;;;9.60;99.90;;;;;;4977069;28;20034;-66
2023/01/12 07:11:13;;;;;;;2.78;1.90;;;9.60;99.90;;;;;;4969953;28;20046;-66
2023/01/12 07:13:39;;;;;;;3.33;1.48;;;9.60;99.90;;;;;;4977578;28;20038;-66
2023/01/12 07:16:05;;;;;;;2.13;1.52;;;9.60;99.90;;;;;;4966143;28;20056;-65
2023/01/12 07:18:31;;;;;;;3.72;1.60;;;9.60;99.90;;;;;;4992067;28;20043;-66
2023/01/12 07:20:56;;;;;;;2.70;1.73;;;9.60;99.90;;;;;;4972524;28;20035;-65
2023/01/12 07:23:22;;;;;;;4.82;1.83;;;9.60;99.90;;;;;;4963574;28;20485;-66
2023/01/12 07:25:48;;;;;;;2.35;1.40;;;9.60;99.90;;;;;;4984830;28;20042;-66
2023/01/12 07:28:14;;;;;;;3.60;1.90;;;9.60;99.90;;;;;;4980906;28;20039;-65
2023/01/12 07:30:39;;;;;;;4.30;1.90;;;9.60;99.90;;;;;;4982779;28;20041;-66
2023/01/12 07:33:07;;;;;;;3.40;1.65;;;9.60;99.90;;;;;;4974937;28;20046;-66
2023/01/12 07:35:32;;;;;;;3.22;1.83;;;9.70;99.90;;;;;;4973803;28;20047;-66
2023/01/12 07:37:58;;;;;;;2.92;1.60;;;9.70;99.90;;;;;;4976080;28;20038;-66
2023/01/12 07:40:23;;;;;;;4.30;1.98;;;9.60;99.90;;;;;;4984589;28;20093;-65
2023/01/12 07:42:58;;;;;;;3.63;1.90;;;9.60;99.90;;;;;;4978635;28;20038;-65
2023/01/12 07:45:23;;;;;;;2.67;1.65;;;9.60;99.90;;;;;;4982660;28;20035;-66
2023/01/12 07:47:53;;;;;;;3.92;2.17;;;9.70;99.90;;;;;;4991649;28;20374;-66
2023/01/12 07:50:20;;;;;;;2.55;1.80;;;9.70;99.90;;;;;;4981357;28;20118;-66
2023/01/12 07:52:46;;;;;;;3.08;1.90;;;9.80;99.90;;;;;;4985523;28;20058;-66
2023/01/12 07:55:12;;;;;;;3.05;1.70;;;9.70;99.90;;;;;;4976243;28;20472;-66
2023/01/12 07:57:38;;;;;;;3.05;2.08;;;9.80;99.90;;;;;;4987034;28;20053;-66
2023/01/12 08:00:05;;;;;;;3.83;2.20;;;9.80;99.90;;;;;;4995133;28;20034;-65
2023/01/12 08:02:30;;;;;;;3.33;1.88;;;9.80;99.90;;;;;;4983662;28;20043;-66
2023/01/12 08:04:56;;;;;;;3.58;1.85;;;9.80;99.90;;;;;;4968554;28;20061;-66
2023/01/12 08:07:22;;;;;;;3.30;2.00;;;9.70;99.90;;;;;;4973853;28;20039;-66
2023/01/12 08:09:47;;;;;;;4.03;2.20;;;9.80;99.90;;;;;;4957915;28;20050;-65
2023/01/12 08:12:13;;;;;;;4.70;2.38;;;9.80;99.90;;;;;;4978103;28;20038;-66
2023/01/12 08:14:41;;;;;;;3.63;2.40;;;9.70;99.90;;;;;;4980178;28;20512;-66
2023/01/12 08:17:12;;;;;;;5.00;2.28;;;9.80;99.90;;;;;;4982224;28;20074;-66
2023/01/12 08:19:48;;;;;;;4.03;2.25;;;9.80;99.90;;;;;;4975177;28;20057;-66
2023/01/12 08:22:19;;;;;;;5.03;2.53;;;9.80;99.90;;;;;;4983205;28;20039;-66
2023/01/12 08:24:55;;;;;;;4.07;2.42;;;9.90;99.90;;;;;;4972056;28;20034;-66
2023/01/12 08:27:25;;;;;;;3.55;2.63;;;9.90;99.90;;;;;;4975994;28;20046;-66
2023/01/12 08:29:54;;;;;;;3.75;2.20;;;9.90;99.90;;;;;;4986941;28;20386;-66
2023/01/12 08:32:21;;;;;;;4.38;2.65;;;9.90;99.90;;;;;;4982353;28;20047;-65
2023/01/12 08:34:49;;;;;;;3.60;2.20;;;9.90;99.90;;;;;;4982407;28;20043;-66
2023/01/12 08:37:19;;;;;;;4.68;2.42;;;9.90;99.90;;;;;;4979792;28;20034;-65
2023/01/12 08:39:45;;;;;;;4.40;2.42;;;10.00;99.90;;;;;;4960275;28;20094;-65
2023/01/12 08:42:11;;;;;;;4.63;2.10;;;10.00;99.90;;;;;;4975246;28;20085;-65
2023/01/12 08:44:37;;;;;;;3.28;2.47;;;10.00;99.90;;;;;;4977313;28;20494;-65
2023/01/12 08:47:05;;;;;;;3.83;2.63;;;10.10;99.90;;;;;;4976916;28;20039;-66
2023/01/12 08:49:32;;;;;;;3.53;2.50;;;10.10;99.90;;;;;;4958137;28;20522;-66
2023/01/12 08:51:58;;;;;;;4.93;2.20;;;10.10;99.90;;;;;;4974083;28;20049;-65
2023/01/12 08:54:24;;;;;;;4.75;2.65;;;10.10;99.90;;;;;;4974615;28;20092;-65
2023/01/12 08:56:50;;;;;;;4.03;2.40;;;10.20;99.90;;;;;;4989713;28;20086;-65
2023/01/12 08:59:17;;;;;;;4.70;2.50;;;10.20;99.90;;;;;;4990989;28;20111;-66
2023/01/12 09:01:43;;;;;;;4.40;2.70;;;10.20;99.90;;;;;;4964741;28;20038;-65
2023/01/12 09:04:09;;;;;;;3.53;2.60;;;10.30;99.90;;;;;;4987151;28;20062;-66
2023/01/12 09:06:38;;;;;;;4.43;2.67;;;10.30;99.90;;;;;;4990009;28;20413;-65
2023/01/12 09:09:07;;;;;;;6.70;3.08;;;10.40;99.90;;;;;;4979135;28;20066;-65
2023/01/12 09:11:34;;;;;;;6.38;3.00;;;10.40;99.90;;;;;;4975973;28;20049;-65
2023/01/12 09:14:00;;;;;;;8.65;2.90;;;10.50;99.90;;;;;;4977185;28;20038;-66
2023/01/12 09:16:27;;;;;;;6.35;2.60;;;10.50;99.90;;;;;;4982809;28;20049;-65
2023/01/12 09:18:54;;;;;;;8.57;3.10;;;10.60;99.90;;;;;;4984648;28;20027;-65
2023/01/12 09:21:21;;;;;;;11.63;3.40;;;10.60;99.90;;;;;;4972466;28;20039;-65
2023/01/12 09:23:51;;;;;;;16.55;3.53;;;10.70;99.90;;;;;;4974207;28;20039;-65
2023/01/12 09:26:19;;;;;;;8.52;3.03;;;10.80;99.90;;;;;;4975322;28;20038;-67
2023/01/12 09:28:45;;;;;;;15.73;3.67;;;10.80;99.90;;;;;;4984366;28;20396;-65
2023/01/12 09:31:13;;;;;;;11.57;3.42;;;10.90;99.90;;;;;;4971887;28;20030;-65
2023/01/12 09:33:39;;;;;;;14.38;3.55;;;11.00;99.90;;;;;;4980743;28;20030;-65
2023/01/12 09:36:06;;;;;;;15.45;3.10;;;11.00;99.90;;;;;;4983379;28;20037;-65
2023/01/12 09:38:35;;;;;;;16.63;4.07;;;11.10;99.90;;;;;;4988052;28;20042;-66
2023/01/12 09:41:09;;;;;;;19.58;4.05;;;11.20;99.90;;;;;;4984175;28;20038;-66
2023/01/12 09:49:11;;;;;;;21.30;3.40;;;11.50;99.90;;;;;;4984791;28;20046;-66
2023/01/12 09:51:53;;;;;;;18.55;3.15;;;11.60;99.90;;;;;;4960909;28;20070;-65
2023/01/12 09:54:19;;;;;;;16.58;3.90;;;11.50;99.90;;;;;;4978721;28;20046;-66
2023/01/12 09:57:08;;;;;;;17.65;3.22;;;11.60;99.90;;;;;;4990663;28;20049;-66
2023/01/12 09:59:45;;;;;;;18.67;3.38;;;11.60;99.90;;;;;;4986773;28;20065;-65
2023/01/12 10:02:12;;;;;;;20.52;3.90;;;11.60;99.90;;;;;;4973538;28;20252;-65
2023/01/12 10:04:39;;;;;;;18.42;2.85;;;11.70;99.90;;;;;;4970014;28;20121;-65
2023/01/12 10:07:07;;;;;;;17.92;3.58;;;11.70;99.90;;;;;;4975044;28;20058;-65
2023/01/12 10:09:36;;;;;;;14.55;3.13;;;11.80;99.90;;;;;;4973748;28;20133;-65
2023/01/12 10:12:10;;;;;;;18.90;3.80;;;11.80;99.90;;;;;;4976072;28;20093;-65
2023/01/12 10:14:41;;;;;;;20.25;3.67;;;11.80;99.90;;;;;;4969845;28;20400;-65
2023/01/12 10:17:32;;;;;;;17.70;3.08;;;11.80;99.90;;;;;;4976318;28;20054;-65
2023/01/12 10:20:15;;;;;;;16.92;3.53;;;11.80;99.90;;;;;;4980260;28;20457;-66
2023/01/12 10:22:46;;;;;;;17.40;3.13;;;11.80;99.90;;;;;;4969140;28;20035;-66
2023/01/12 10:25:24;;;;;;;19.05;3.25;;;11.80;99.90;;;;;;4976648;28;20070;-65
2023/01/12 10:27:54;;;;;;;15.77;3.15;;;11.70;99.90;;;;;;4978813;28;20043;-65
2023/01/12 10:30:28;;;;;;;18.80;3.00;;;11.80;99.90;;;;;;4958876;28;20042;-65
2023/01/12 10:32:53;;;;;;;17.13;2.72;;;11.80;99.90;;;;;;4985641;28;20509;-65
2023/01/12 10:35:22;;;;;;;15.80;2.97;;;11.80;99.90;;;;;;4989074;28;20042;-65
2023/01/12 10:37:53;;;;;;;14.93;3.17;;;11.70;99.90;;;;;;4976910;28;20454;-66
2023/01/12 10:40:21;;;;;;;14.05;2.95;;;11.70;99.90;;;;;;4974647;28;20042;-65
2023/01/12 10:43:18;;;;;;;13.32;2.67;;;11.60;99.90;;;;;;4971759;28;20034;-65
2023/01/12 10:45:53;;;;;;;13.35;2.80;;;11.60;99.90;;;;;;4976959;28;20045;-65
2023/01/12 10:48:21;;;;;;;11.90;2.35;;;11.50;99.90;;;;;;4979500;28;20118;-66
2023/01/12 10:51:01;;;;;;;16.70;2.90;;;11.40;99.90;;;;;;4979030;28;20035;-64
2023/01/12 10:53:29;;;;;;;16.20;3.42;;;11.40;99.90;;;;;;4978774;28;20031;-66
2023/01/12 10:55:56;;;;;;;19.17;2.83;;;11.40;99.90;;;;;;4972298;28;20038;-65
2023/01/12 10:58:28;;;;;;;15.32;3.25;;;11.50;99.90;;;;;;4974447;28;20382;-65
2023/01/12 11:00:53;;;;;;;15.77;3.25;;;11.50;99.90;;;;;;4983835;28;20123;-65
2023/01/12 11:03:36;;;;;;;14.68;2.92;;;11.50;99.90;;;;;;4978945;28;20046;-65
2023/01/12 11:06:25;;;;;;;19.73;3.40;;;11.60;99.90;;;;;;4976571;28;20063;-66
2023/01/12 11:08:51;;;;;;;16.33;3.78;;;11.60;99.90;;;;;;4977858;28;20049;-65
2023/01/12 11:11:29;;;;;;;17.90;3.00;;;11.60;99.90;;;;;;4976258;28;20030;-66
2023/01/12 11:13:57;;;;;;;16.35;3.22;;;11.60;99.90;;;;;;4963359;28;20109;-66
2023/01/12 11:16:32;;;;;;;19.17;2.92;;;11.60;99.90;;;;;;4953968;28;20043;-65
2023/01/12 11:19:16;;;;;;;18.70;3.53;;;11.70;99.90;;;;;;4959872;28;20042;-66
2023/01/12 11:21:47;;;;;;;14.90;3.05;;;11.70;99.90;;;;;;4971600;28;20135;-65
2023/01/12 11:24:16;;;;;;;;;;;11.70;99.90;;;;;;4973887;28;20046;-65
2023/01/12 11:26:54;;;;;;;17.65;2.97;;;11.70;99.90;;;;;;4979406;28;19918;-66
2023/01/12 11:29:29;;;;;;;18.90;3.33;;;11.80;99.90;;;;;;4978171;28;20118;-65
2023/01/12 11:32:21;;;;;;;19.38;3.40;;;11.80;99.90;;;;;;4979397;28;20405;-65
2023/01/12 11:35:19;;;;;;;17.10;2.80;;;11.90;99.90;;;;;;4975476;28;20042;-66
2023/01/12 11:37:45;;;;;;;20.48;3.50;;;12.00;99.90;;;;;;4974619;28;20102;-67
2023/01/12 11:40:31;;;;;;;16.77;3.17;;;12.10;99.90;;;;;;4987647;28;20049;-66
2023/01/12 11:46:34;;;;;;;21.30;3.10;;;12.20;99.90;;;;;;4979194;28;20544;-67
2023/01/12 11:49:26;;;;;;;16.83;3.28;;;12.20;99.90;;;;;;4979250;28;20109;-67
2023/01/12 11:51:55;;;;;;;;;;;12.20;99.90;;;;;;4985762;28;20117;-67
2023/01/12 11:54:22;;;;;;;17.70;2.33;;;12.20;99.90;;;;;;4959078;28;20031;-66
2023/01/12 11:57:07;;;;;;;14.95;2.95;;;12.20;99.90;;;;;;4987292;28;20400;-67
2023/01/12 11:59:44;;;;;;;14.95;3.53;;;12.20;99.90;;;;;;4994317;28;20026;-66
2023/01/12 12:02:13;;;;;;;16.17;3.15;;;12.20;99.90;;;;;;4973512;28;20034;-67
2023/01/12 12:05:05;;;;;;;17.05;3.53;;;12.20;99.90;;;;;;4984905;28;20088;-67
2023/01/12 12:07:34;;;;;;;19.08;3.20;;;12.20;99.90;;;;;;4986327;28;20046;-67
2023/01/12 12:10:22;;;;;;;23.42;3.13;;;12.30;99.90;;;;;;4996099;28;20038;-67
2023/01/12 12:12:57;;;;;;;16.58;3.22;;;12.30;99.90;;;;;;4991716;28;20030;-66
2023/01/12 12:15:25;;;;;;;16.33;3.17;;;12.30;99.90;;;;;;4988422;28;20070;-66
2023/01/12 12:18:12;;;;;;;19.98;3.20;;;12.20;99.90;;;;;;4990600;28;20053;-66
2023/01/12 12:20:45;;;;;;;15.93;3.10;;;12.20;99.90;;;;;;4981102;28;20043;-65
2023/01/12 12:23:28;;;;;;;18.35;3.33;;;12.20;99.90;;;;;;4970427;28;20046;-66
2023/01/12 12:26:19;;;;;;;16.30;2.95;;;12.20;99.90;;;;;;4984898;28;20035;-66
2023/01/12 12:28:56;;;;;;;22.10;3.10;;;12.10;99.90;;;;;;4978284;28;20049;-66
2023/01/12 12:31:49;;;;;;;10.45;3.25;;;12.00;99.90;;;;;;4975372;28;20074;-66
2023/01/12 12:34:30;;;;;;;18.73;3.92;;;12.00;99.90;;;;;;4980178;28;20049;-66
2023/01/12 12:37:10;;;;;;;16.73;3.22;;;12.10;99.90;;;;;;4958833;28;20100;-65
2023/01/12 12:40:08;;;;;;;21.15;3.65;;;12.10;99.90;;;;;;4971367;28;20130;-66
2023/01/12 12:45:37;;;;;;;21.77;3.72;;;12.00;99.90;;;;;;4980811;28;20049;-66
2023/01/12 12:48:14;;;;;;;20.95;3.85;;;12.00;99.90;;;;;;4985775;28;20042;-66
2023/01/12 12:51:06;;;;;;;20.85;3.92;;;12.00;99.90;;;;;;4973864;28;20046;-66
2023/01/12 12:53:35;;;;;;;;;;;12.00;99.90;;;;;;4974369;28;20413;-65
2023/01/12 12:56:05;;;;;;;20.05;4.57;;;12.00;99.90;;;;;;4986278;28;20380;-66
2023/01/12 12:58:43;;;;;;;22.67;3.40;;;12.00;99.90;;;;;;4984196;28;20046;-66
2023/01/12 13:01:32;;;;;;;15.07;3.30;;;12.00;99.90;;;;;;4991736;28;20046;-66
2023/01/12 13:04:00;;;;;;;14.80;3.72;;;12.00;99.90;;;;;;4968179;28;20047;-66
2023/01/12 13:06:27;;;;;;;16.42;3.50;;;12.00;99.90;;;;;;4989848;28;20121;-66
2023/01/12 13:08:55;;;;;;;24.58;3.92;;;12.00;99.90;;;;;;4994298;28;20038;-66
2023/01/12 13:11:52;;;;;;;17.58;3.45;;;12.00;99.90;;;;;;4978491;28;20034;-66
2023/01/12 13:14:38;;;;;;;18.20;3.25;;;12.00;99.90;;;;;;4985354;28;20097;-66
2023/01/12 13:17:22;;;;;;;15.43;3.10;;;12.10;99.90;;;;;;4994187;28;20042;-66
2023/01/12 13:19:49;;;;;;;14.23;3.10;;;12.00;99.90;;;;;;4982777;28;20054;-66
2023/01/12 13:22:28;;;;;;;16.45;3.20;;;12.00;99.90;;;;;;4980521;28;20042;-66
2023/01/12 13:25:25;;;;;;;11.88;2.90;;;11.90;99.90;;;;;;4980072;28;20030;-67
2023/01/12 13:27:59;;;;;;;7.75;2.88;;;11.90;99.90;;;;;;4978798;28;20516;-66
2023/01/12 13:30:27;;;;;;;15.60;3.10;;;11.90;99.90;;;;;;4978554;28;20057;-66
2023/01/12 13:33:19;;;;;;;9.35;2.78;;;11.90;99.90;;;;;;4978622;28;20521;-66
2023/01/12 13:35:45;;;;;;;11.32;2.78;;;11.90;99.90;;;;;;4990986;28;20027;-66
2023/01/12 13:38:43;;;;;;;13.57;2.90;;;11.90;99.90;;;;;;4986815;28;20048;-66
2023/01/12 13:44:25;;;;;;;9.25;2.75;;;11.90;99.90;;;;;;4958923;28;20043;-67
2023/01/12 13:46:57;;;;;;;10.63;3.15;;;11.80;99.90;;;;;;4985244;28;20030;-65
2023/01/12 13:49:32;;;;;;;11.77;3.65;;;11.80;99.90;;;;;;4991198;28;20073;-66
2023/01/12 13:52:03;;;;;;;11.27;2.97;;;11.70;99.90;;;;;;4983665;28;20401;-66